createdAt,value
2023-05-06T00:02:21.169Z,93.21
2023-05-06T00:04:52.308Z,91.98
2023-05-06T00:07:23.232Z,90.87
2023-05-06T00:09:56.776Z,89.72
2023-05-06T00:12:27.626Z,94.80
2023-05-06T00:14:58.364Z,94.26
2023-05-06T00:17:29.135Z,95.47
2023-05-06T00:20:00.039Z,94.77
2023-05-06T00:22:30.938Z,95.70
2023-05-06T00:25:04.273Z,95.09
2023-05-06T00:27:35.215Z,95.30
2023-05-06T00:30:06.003Z,94.81
2023-05-06T00:32:37.302Z,94.76
2023-05-06T00:35:09.574Z,94.76
2023-05-06T00:37:41.106Z,94.50
2023-05-06T00:40:15.630Z,94.21
2023-05-06T00:42:46.529Z,94.28
2023-05-06T00:45:17.319Z,94.20
2023-05-06T00:47:48.430Z,94.92
2023-05-06T00:50:19.378Z,94.01
2023-05-06T00:52:50.699Z,93.20
2023-05-06T00:55:24.755Z,94.35
2023-05-06T00:57:55.995Z,94.74
2023-05-06T01:00:27.118Z,93.32
2023-05-06T01:02:58.015Z,97.11
2023-05-06T01:05:50.138Z,95.78
2023-05-06T01:08:28.592Z,96.17
2023-05-06T01:11:08.600Z,95.60
2023-05-06T01:13:45.998Z,95.78
2023-05-06T01:16:19.109Z,94.81
2023-05-06T01:18:52.335Z,95.24
2023-05-06T01:21:27.147Z,94.47
2023-05-06T01:24:01.416Z,94.87
2023-05-06T01:26:32.382Z,94.26
2023-05-06T01:29:04.600Z,92.83
2023-05-06T01:31:41.325Z,94.53
2023-05-06T01:34:21.221Z,94.63
2023-05-06T01:37:01.693Z,94.53
2023-05-06T01:39:36.735Z,93.31
2023-05-06T01:42:09.212Z,95.15
2023-05-06T01:44:43.956Z,94.09
2023-05-06T01:47:16.342Z,95.05
2023-05-06T01:49:47.240Z,94.22
2023-05-06T01:52:19.392Z,92.71
2023-05-06T01:54:52.774Z,95.19
2023-05-06T01:57:23.456Z,94.82
2023-05-06T01:59:55.089Z,95.07
2023-05-06T02:02:28.252Z,94.97
2023-05-06T02:04:59.262Z,96.28
2023-05-06T02:07:30.222Z,95.67
2023-05-06T02:10:03.964Z,95.77
2023-05-06T02:12:37.299Z,95.45
2023-05-06T02:15:09.664Z,93.80
2023-05-06T02:17:41.711Z,95.94
2023-05-06T02:20:13.040Z,95.50
2023-05-06T02:22:44.449Z,93.63
2023-05-06T02:25:18.047Z,95.38
2023-05-06T02:27:49.517Z,96.37
2023-05-06T02:30:20.896Z,96.92
2023-05-06T02:32:52.236Z,95.96
2023-05-06T02:35:23.123Z,96.33
2023-05-06T02:37:54.244Z,95.39
2023-05-06T02:40:27.669Z,93.81
2023-05-06T02:42:58.421Z,96.65
2023-05-06T02:45:29.870Z,95.68
2023-05-06T02:48:00.958Z,97.08
2023-05-06T02:50:31.833Z,96.09
2023-05-06T02:53:02.662Z,97.02
2023-05-06T02:55:36.229Z,96.18
2023-05-06T02:58:07.011Z,94.49
2023-05-06T03:00:37.846Z,96.41
2023-05-06T03:03:08.670Z,95.66
2023-05-06T03:05:39.610Z,96.85
2023-05-06T03:08:10.346Z,96.11
2023-05-06T03:10:43.729Z,96.19
2023-05-06T03:13:14.515Z,96.89
2023-05-06T03:15:45.430Z,97.09
2023-05-06T03:18:16.331Z,97.60
2023-05-06T03:20:47.710Z,95.70
2023-05-06T03:23:19.006Z,97.83
2023-05-06T03:25:52.770Z,96.38
2023-05-06T03:28:24.568Z,94.71
2023-05-06T03:30:56.377Z,96.94
2023-05-06T03:33:27.588Z,96.53
2023-05-06T03:35:58.253Z,97.59
2023-05-06T03:38:29.185Z,97.00
2023-05-06T03:41:07.966Z,95.23
2023-05-06T03:43:39.081Z,97.30
2023-05-06T03:46:10.328Z,96.03
2023-05-06T03:48:41.303Z,97.36
2023-05-06T03:51:16.148Z,95.59
2023-05-06T03:53:47.127Z,96.63
2023-05-06T03:56:22.203Z,95.49
2023-05-06T03:58:56.176Z,93.20
2023-05-06T04:01:29.142Z,96.82
2023-05-06T04:03:59.906Z,95.91
2023-05-06T04:06:30.998Z,97.04
2023-05-06T04:09:01.856Z,95.85
2023-05-06T04:11:35.433Z,96.37
2023-05-06T04:14:07.906Z,95.28
2023-05-06T04:16:39.619Z,95.75
2023-05-06T04:19:10.713Z,95.19
2023-05-06T04:21:42.560Z,95.48
2023-05-06T04:24:16.469Z,94.58
2023-05-06T04:26:49.914Z,95.18
2023-05-06T04:29:20.946Z,93.95
2023-05-06T04:32:08.074Z,91.90
2023-05-06T04:34:39.931Z,93.83
2023-05-06T04:37:14.048Z,95.11
2023-05-06T04:39:50.126Z,96.27
2023-05-06T04:42:23.660Z,95.56
2023-05-06T04:45:09.970Z,95.49
2023-05-06T04:47:42.274Z,94.09
2023-05-06T04:50:14.299Z,94.63
2023-05-06T04:52:46.005Z,93.47
2023-05-06T04:55:18.502Z,94.63
2023-05-06T04:57:56.308Z,93.49
2023-05-06T05:00:27.878Z,93.88
2023-05-06T05:02:58.879Z,93.11
2023-05-06T05:05:30.772Z,93.20
2023-05-06T05:08:02.534Z,91.35
2023-05-06T05:10:36.668Z,91.20
2023-05-06T05:13:11.110Z,88.79
2023-05-06T05:15:42.036Z,89.16
2023-05-06T05:18:13.609Z,85.05
2023-05-06T05:20:44.525Z,85.86
2023-05-06T05:23:17.392Z,82.82
2023-05-06T05:25:49.370Z,84.71
2023-05-06T05:28:23.104Z,80.73
2023-05-06T05:30:54.792Z,82.03
2023-05-06T05:33:26.148Z,77.77
2023-05-06T05:35:57.109Z,79.44
2023-05-06T05:38:28.034Z,74.70
2023-05-06T05:40:59.511Z,76.94
2023-05-06T05:43:35.940Z,73.83
2023-05-06T05:46:08.270Z,76.44
2023-05-06T05:48:40.476Z,74.31
2023-05-06T05:51:11.769Z,76.18
2023-05-06T05:53:43.113Z,76.77
2023-05-06T05:56:13.885Z,77.55
2023-05-06T05:58:48.012Z,75.65
2023-05-06T06:01:18.930Z,75.53
2023-05-06T06:03:50.827Z,75.42
2023-05-06T06:06:21.713Z,75.74
2023-05-06T06:08:53.245Z,75.82
2023-05-06T06:11:25.703Z,76.57
2023-05-06T06:13:59.520Z,75.98
2023-05-06T06:16:30.988Z,76.76
2023-05-06T06:19:02.019Z,77.56
2023-05-06T06:21:33.015Z,76.91
2023-05-06T06:24:05.117Z,76.67
2023-05-06T06:26:35.920Z,71.38
2023-05-06T06:29:09.366Z,71.63
2023-05-06T06:31:40.777Z,72.09
2023-05-06T06:34:13.100Z,72.41
2023-05-06T06:36:45.714Z,71.91
2023-05-06T06:39:16.898Z,71.23
2023-05-06T06:41:47.623Z,71.65
2023-05-06T06:44:21.043Z,70.05
2023-05-06T06:46:51.786Z,70.38
2023-05-06T06:49:22.824Z,69.38
2023-05-06T06:51:57.089Z,70.39
2023-05-06T06:54:28.223Z,71.04
2023-05-06T06:56:59.153Z,69.39
2023-05-06T06:59:32.680Z,68.06
2023-05-06T07:02:03.395Z,68.80
2023-05-06T07:04:34.190Z,69.67
2023-05-06T07:07:04.989Z,68.79
2023-05-06T07:09:36.490Z,69.01
2023-05-06T07:12:08.850Z,68.66
2023-05-06T07:14:42.283Z,67.76
2023-05-06T07:17:13.004Z,66.67
2023-05-06T07:19:43.779Z,65.35
2023-05-06T07:22:14.476Z,64.72
2023-05-06T07:24:45.203Z,63.93
2023-05-06T07:27:15.955Z,64.62
2023-05-06T07:29:49.457Z,63.33
2023-05-06T07:32:20.521Z,62.58
2023-05-06T07:34:51.269Z,60.91
2023-05-06T07:37:22.075Z,58.57
2023-05-06T07:39:52.947Z,58.28
2023-05-06T07:42:23.675Z,57.35
2023-05-06T07:44:57.072Z,56.89
2023-05-06T07:47:32.772Z,55.34
2023-05-06T07:50:05.321Z,54.64
2023-05-06T07:52:36.363Z,53.09
2023-05-06T07:55:09.361Z,50.46
2023-05-06T07:57:40.333Z,50.29
2023-05-06T08:00:14.903Z,48.64
2023-05-06T08:02:48.993Z,47.88
2023-05-06T08:05:19.728Z,47.41
2023-05-06T08:07:50.650Z,46.32
2023-05-06T08:10:22.498Z,47.55
2023-05-06T08:12:53.302Z,46.97
2023-05-06T08:15:26.890Z,46.67
2023-05-06T08:18:02.179Z,47.35
2023-05-06T08:20:38.138Z,47.67
2023-05-06T08:23:08.777Z,48.87
2023-05-06T08:25:39.553Z,49.09
2023-05-06T08:28:10.227Z,48.70
2023-05-06T08:30:43.630Z,48.59
2023-05-06T08:33:14.368Z,49.71
2023-05-06T08:35:45.165Z,50.52
2023-05-06T08:38:15.797Z,50.66
2023-05-06T08:40:48.228Z,50.70
2023-05-06T08:43:23.030Z,50.15
2023-05-06T08:45:57.805Z,51.06
2023-05-06T08:48:30.293Z,51.09
2023-05-06T08:51:06.332Z,51.50
2023-05-06T08:53:37.722Z,50.93
2023-05-06T08:56:11.868Z,51.79
2023-05-06T08:58:47.367Z,51.25
2023-05-06T09:01:20.765Z,50.13
2023-05-06T09:03:52.146Z,49.79
2023-05-06T09:06:23.147Z,49.58
2023-05-06T09:08:54.159Z,49.48
2023-05-06T09:11:27.091Z,49.03
2023-05-06T09:14:11.999Z,48.67
2023-05-06T09:16:47.362Z,49.35
2023-05-06T09:19:18.944Z,49.88
2023-05-06T09:21:50.918Z,50.06
2023-05-06T09:24:22.180Z,50.12
2023-05-06T09:26:55.596Z,50.90
2023-05-06T09:29:26.558Z,50.95
2023-05-06T09:31:59.966Z,50.14
2023-05-06T09:34:31.018Z,50.47
2023-05-06T09:37:01.745Z,50.88
2023-05-06T09:39:32.651Z,50.02
2023-05-06T09:42:03.720Z,49.63
2023-05-06T09:44:35.061Z,49.63
2023-05-06T09:47:09.399Z,48.83
2023-05-06T09:49:40.205Z,49.88
2023-05-06T09:52:11.137Z,50.24
2023-05-06T09:54:43.782Z,50.35
2023-05-06T09:57:17.485Z,50.38
2023-05-06T09:59:49.113Z,50.86
2023-05-06T10:02:23.576Z,50.56
2023-05-06T10:04:57.798Z,50.05
2023-05-06T10:07:31.851Z,49.82
2023-05-06T10:10:04.244Z,49.77
2023-05-06T10:12:39.546Z,49.90
2023-05-06T10:15:12.279Z,48.42
2023-05-06T10:17:49.217Z,47.80
2023-05-06T10:20:20.599Z,47.80
2023-05-06T10:23:04.741Z,48.45
2023-05-06T10:25:40.482Z,49.12
2023-05-06T10:28:18.818Z,49.58
2023-05-06T10:31:02.034Z,49.18
2023-05-06T10:33:36.043Z,49.14
2023-05-06T10:36:16.972Z,48.53
2023-05-06T10:38:49.604Z,47.88
2023-05-06T10:41:22.591Z,47.88
2023-05-06T10:43:57.268Z,47.52
2023-05-06T10:46:29.334Z,47.84
2023-05-06T10:49:23.304Z,48.30
2023-05-06T10:52:17.359Z,48.12
2023-05-06T10:54:52.559Z,48.10
2023-05-06T10:57:27.351Z,47.27
2023-05-06T10:59:58.352Z,48.61
2023-05-06T11:02:29.299Z,48.13
2023-05-06T11:05:07.714Z,47.54
2023-05-06T11:07:39.352Z,47.46
2023-05-06T11:10:14.397Z,47.43
2023-05-06T11:12:49.533Z,47.15
2023-05-06T11:15:31.056Z,47.75
2023-05-06T11:18:02.018Z,47.69
2023-05-06T11:20:35.454Z,47.87
2023-05-06T11:23:06.234Z,48.11
2023-05-06T11:25:43.372Z,47.80
2023-05-06T11:28:14.928Z,47.49
2023-05-06T11:30:47.706Z,47.59
2023-05-06T11:33:22.240Z,48.05
2023-05-06T11:35:56.518Z,47.80
2023-05-06T11:38:27.276Z,48.69
2023-05-06T11:40:58.678Z,48.64
2023-05-06T11:43:29.475Z,48.58
2023-05-06T11:46:02.781Z,48.22
2023-05-06T11:48:34.296Z,48.67
2023-05-06T11:51:08.567Z,49.30
2023-05-06T11:53:39.313Z,49.31
2023-05-06T11:56:10.939Z,49.21
2023-05-06T11:58:41.705Z,49.12
2023-05-06T12:01:13.137Z,48.91
2023-05-06T12:03:44.031Z,49.15
2023-05-06T12:06:19.435Z,48.92
2023-05-06T12:08:50.237Z,49.48
2023-05-06T12:11:21.413Z,49.31
2023-05-06T12:13:52.266Z,49.10
2023-05-06T12:16:23.436Z,49.40
2023-05-06T12:18:55.988Z,49.38
2023-05-06T12:21:29.630Z,49.38
2023-05-06T12:24:02.471Z,49.67
2023-05-06T12:26:46.472Z,49.64
2023-05-06T12:29:20.372Z,50.05
2023-05-06T12:31:51.821Z,50.21
2023-05-06T12:34:39.759Z,50.54
2023-05-06T12:37:14.646Z,50.54
2023-05-06T12:39:45.338Z,50.39
2023-05-06T12:42:23.571Z,50.06
2023-05-06T12:44:56.989Z,50.26
2023-05-06T12:47:28.967Z,50.04
2023-05-06T12:50:01.222Z,50.42
2023-05-06T12:52:34.841Z,50.31
2023-05-06T12:55:05.574Z,50.51
2023-05-06T12:57:36.452Z,50.13
2023-05-06T13:00:08.934Z,50.59
2023-05-06T13:02:39.780Z,50.48
2023-05-06T13:05:11.203Z,50.07
2023-05-06T13:07:44.995Z,50.47
2023-05-06T13:10:16.328Z,50.70
2023-05-06T13:12:47.216Z,50.70
2023-05-06T13:15:18.053Z,51.04
2023-05-06T13:17:48.827Z,50.90
2023-05-06T13:20:21.612Z,50.49
2023-05-06T13:22:55.392Z,50.29
2023-05-06T13:25:26.376Z,50.02
2023-05-06T13:27:57.236Z,49.88
2023-05-06T13:30:28.204Z,50.13
2023-05-06T13:32:59.444Z,49.46
2023-05-06T13:35:30.845Z,49.55
2023-05-06T13:38:04.227Z,49.61
2023-05-06T13:40:34.953Z,49.17
2023-05-06T13:43:05.888Z,49.13
2023-05-06T13:45:36.891Z,49.05
2023-05-06T13:48:07.837Z,48.66
2023-05-06T13:50:39.181Z,49.32
2023-05-06T13:53:12.636Z,48.97
2023-05-06T13:55:44.016Z,49.10
2023-05-06T13:58:14.901Z,49.00
2023-05-06T14:00:45.650Z,49.36
2023-05-06T14:03:16.471Z,48.91
2023-05-06T14:05:47.324Z,48.81
2023-05-06T14:08:21.018Z,49.10
2023-05-06T14:10:51.874Z,49.20
2023-05-06T14:13:22.864Z,49.06
2023-05-06T14:15:53.806Z,49.04
2023-05-06T14:18:26.521Z,49.05
2023-05-06T14:20:57.503Z,49.19
2023-05-06T14:23:31.014Z,48.91
2023-05-06T14:26:01.734Z,49.00
2023-05-06T14:28:32.561Z,48.54
2023-05-06T14:31:03.362Z,48.95
2023-05-06T14:33:34.212Z,49.10
2023-05-06T14:36:04.882Z,48.64
2023-05-06T14:38:38.106Z,48.22
2023-05-06T14:41:08.936Z,48.33
2023-05-06T14:43:40.185Z,48.58
2023-05-06T14:46:11.600Z,48.97
2023-05-06T14:48:42.532Z,49.24
2023-05-06T14:51:13.514Z,49.53
2023-05-06T14:53:47.052Z,49.48
2023-05-06T14:56:17.832Z,49.46
2023-05-06T14:58:48.615Z,49.33
2023-05-06T15:01:19.299Z,49.77
2023-05-06T15:03:51.168Z,49.72
2023-05-06T15:06:22.074Z,50.02
2023-05-06T15:08:55.522Z,49.63
2023-05-06T15:11:26.287Z,49.73
2023-05-06T15:13:57.106Z,50.07
2023-05-06T15:16:28.115Z,50.15
2023-05-06T15:18:59.074Z,50.47
2023-05-06T15:21:29.897Z,50.89
2023-05-06T15:24:04.806Z,51.18
2023-05-06T15:26:38.641Z,51.45
2023-05-06T15:29:09.459Z,51.78
2023-05-06T15:31:41.374Z,51.82
2023-05-06T15:34:13.732Z,51.62
2023-05-06T15:36:44.817Z,51.50
2023-05-06T15:39:18.330Z,51.88
2023-05-06T15:41:51.101Z,52.01
2023-05-06T15:44:21.970Z,52.21
2023-05-06T15:46:52.700Z,52.40
2023-05-06T15:49:45.438Z,52.71
2023-05-06T15:52:14.380Z,52.98
2023-05-06T15:54:49.896Z,52.94
2023-05-06T15:57:21.209Z,53.38
2023-05-06T15:59:52.102Z,53.56
2023-05-06T16:02:26.844Z,53.76
2023-05-06T16:04:58.624Z,53.52
2023-05-06T16:07:30.253Z,54.16
2023-05-06T16:10:03.809Z,53.88
2023-05-06T16:12:35.256Z,54.22
2023-05-06T16:15:06.167Z,54.04
2023-05-06T16:17:38.182Z,54.68
2023-05-06T16:20:13.188Z,54.91
2023-05-06T16:22:44.273Z,55.96
2023-05-06T16:25:17.881Z,56.50
2023-05-06T16:27:48.607Z,57.42
2023-05-06T16:30:19.803Z,58.01
2023-05-06T16:32:50.709Z,58.61
2023-05-06T16:35:21.710Z,59.54
2023-05-06T16:37:52.460Z,60.30
2023-05-06T16:40:26.110Z,60.98
2023-05-06T16:42:56.983Z,61.28
2023-05-06T16:45:27.900Z,62.36
2023-05-06T16:47:58.690Z,62.85
2023-05-06T16:50:29.462Z,63.00
2023-05-06T16:53:00.163Z,63.11
2023-05-06T16:55:33.569Z,63.86
2023-05-06T16:58:04.529Z,64.30
2023-05-06T17:00:35.377Z,65.13
2023-05-06T17:03:06.178Z,65.41
2023-05-06T17:05:37.056Z,65.73
2023-05-06T17:08:08.507Z,65.84
2023-05-06T17:10:43.839Z,66.17
2023-05-06T17:13:14.343Z,67.24
2023-05-06T17:15:45.049Z,67.65
2023-05-06T17:18:15.958Z,68.08
2023-05-06T17:20:55.028Z,68.82
2023-05-06T17:23:27.411Z,69.08
2023-05-06T17:26:01.803Z,69.72
2023-05-06T17:28:32.500Z,69.66
2023-05-06T17:31:03.243Z,69.90
2023-05-06T17:33:34.013Z,70.27
2023-05-06T17:36:04.805Z,70.79
2023-05-06T17:38:35.592Z,71.17
2023-05-06T17:41:09.241Z,71.69
2023-05-06T17:43:39.963Z,71.87
2023-05-06T17:46:10.812Z,72.24
2023-05-06T17:48:41.607Z,72.47
2023-05-06T17:51:12.442Z,72.26
2023-05-06T17:53:43.103Z,72.15
2023-05-06T17:56:16.938Z,72.62
2023-05-06T17:58:47.680Z,72.73
2023-05-06T18:01:18.450Z,73.27
2023-05-06T18:03:49.481Z,73.65
2023-05-06T18:06:20.353Z,73.92
2023-05-06T18:08:51.049Z,73.85
2023-05-06T18:11:24.392Z,74.44
2023-05-06T18:13:57.630Z,74.42
2023-05-06T18:16:28.610Z,74.59
2023-05-06T18:19:01.164Z,74.66
2023-05-06T18:21:32.102Z,74.81
2023-05-06T18:24:15.218Z,74.78
2023-05-06T18:26:49.063Z,74.94
2023-05-06T18:29:19.879Z,74.72
2023-05-06T18:31:50.771Z,74.65
2023-05-06T18:34:21.739Z,75.15
2023-05-06T18:36:52.475Z,75.14
2023-05-06T18:39:25.767Z,75.06
2023-05-06T18:41:59.485Z,75.56
2023-05-06T18:44:30.222Z,76.19
2023-05-06T18:47:00.879Z,75.86
2023-05-06T18:49:32.027Z,75.73
2023-05-06T18:52:02.799Z,76.07
2023-05-06T18:54:33.617Z,76.53
2023-05-06T18:57:07.151Z,76.63
2023-05-06T18:59:38.005Z,76.10
2023-05-06T19:02:08.746Z,76.51
2023-05-06T19:04:39.774Z,76.76
2023-05-06T19:07:10.835Z,76.99
2023-05-06T19:09:42.622Z,77.29
2023-05-06T19:12:16.325Z,77.26
2023-05-06T19:14:47.170Z,77.53
2023-05-06T19:17:17.955Z,77.17
2023-05-06T19:19:49.484Z,77.60
2023-05-06T19:22:20.281Z,77.85
2023-05-06T19:24:51.050Z,77.89
2023-05-06T19:27:24.400Z,78.06
2023-05-06T19:29:55.477Z,77.83
2023-05-06T19:32:26.171Z,77.78
2023-05-06T19:34:56.959Z,77.82
2023-05-06T19:37:30.379Z,78.07
2023-05-06T19:40:01.222Z,78.05
2023-05-06T19:42:37.626Z,78.25
2023-05-06T19:45:12.318Z,78.31
2023-05-06T19:47:44.997Z,78.38
2023-05-06T19:50:16.007Z,78.36
2023-05-06T19:52:46.633Z,78.24
2023-05-06T19:55:18.727Z,78.65
2023-05-06T19:57:53.531Z,78.53
2023-05-06T20:00:25.851Z,78.47
2023-05-06T20:02:57.098Z,78.74
2023-05-06T20:05:29.917Z,78.81
2023-05-06T20:08:00.946Z,78.82
2023-05-06T20:10:31.835Z,78.80
2023-05-06T20:13:05.474Z,78.79
2023-05-06T20:15:36.674Z,78.82
2023-05-06T20:18:07.906Z,79.03
2023-05-06T20:20:40.206Z,79.13
2023-05-06T20:23:10.919Z,79.35
2023-05-06T20:25:41.825Z,79.75
2023-05-06T20:28:15.169Z,79.62
2023-05-06T20:30:46.001Z,79.92
2023-05-06T20:33:16.935Z,79.91
2023-05-06T20:35:48.399Z,79.72
2023-05-06T20:38:19.798Z,80.14
2023-05-06T20:40:50.829Z,79.91
2023-05-06T20:43:24.161Z,80.22
2023-05-06T20:45:54.947Z,83.55
2023-05-06T20:48:28.054Z,81.99
2023-05-06T20:50:58.915Z,79.18
2023-05-06T20:53:29.841Z,76.04
2023-05-06T20:56:00.661Z,73.43
2023-05-06T20:58:33.960Z,71.58
2023-05-06T21:01:06.283Z,70.88
2023-05-06T21:03:37.004Z,70.30
2023-05-06T21:06:07.967Z,69.94
2023-05-06T21:08:38.815Z,69.70
2023-05-06T21:11:09.671Z,69.81
2023-05-06T21:13:43.425Z,69.91
2023-05-06T21:16:14.379Z,70.31
2023-05-06T21:18:45.266Z,70.78
2023-05-06T21:21:16.303Z,71.14
2023-05-06T21:23:47.097Z,71.64
2023-05-06T21:26:18.101Z,71.88
2023-05-06T21:28:52.349Z,72.41
2023-05-06T21:31:23.804Z,72.64
2023-05-06T21:33:58.174Z,73.13
2023-05-06T21:36:29.276Z,73.72
2023-05-06T21:39:04.140Z,73.81
2023-05-06T21:41:35.800Z,74.44
2023-05-06T21:44:11.943Z,74.84
2023-05-06T21:46:43.135Z,75.00
2023-05-06T21:49:13.964Z,75.16
2023-05-06T21:51:44.718Z,75.30
2023-05-06T21:54:15.511Z,75.74
2023-05-06T21:56:46.699Z,75.94
2023-05-06T21:59:20.103Z,75.98
2023-05-06T22:01:51.279Z,76.11
2023-05-06T22:04:22.042Z,76.42
2023-05-06T22:06:52.927Z,76.36
2023-05-06T22:09:23.834Z,76.63
2023-05-06T22:11:55.007Z,76.85
2023-05-06T22:14:37.357Z,76.88
2023-05-06T22:17:12.761Z,76.92
2023-05-06T22:19:43.993Z,77.31
2023-05-06T22:22:15.225Z,77.61
2023-05-06T22:24:46.177Z,77.66
2023-05-06T22:27:17.110Z,77.58
2023-05-06T22:29:50.380Z,78.26
2023-05-06T22:32:21.953Z,78.15
2023-05-06T22:34:52.751Z,78.26
2023-05-06T22:37:23.830Z,78.20
2023-05-06T22:39:54.657Z,78.39
2023-05-06T22:42:25.383Z,78.58
2023-05-06T22:44:58.748Z,78.54
2023-05-06T22:47:29.693Z,78.84
2023-05-06T22:50:00.403Z,78.73
2023-05-06T22:52:31.219Z,78.72
2023-05-06T22:55:02.039Z,78.92
2023-05-06T22:57:34.605Z,79.02
2023-05-06T23:00:10.921Z,79.26
2023-05-06T23:02:41.729Z,79.29
2023-05-06T23:05:12.870Z,79.10
2023-05-06T23:07:43.761Z,79.32
2023-05-06T23:10:14.821Z,79.12
2023-05-06T23:12:45.809Z,79.32
2023-05-06T23:15:19.238Z,79.14
2023-05-06T23:17:50.574Z,79.17
2023-05-06T23:20:23.837Z,79.03
2023-05-06T23:22:54.858Z,79.11
2023-05-06T23:25:25.647Z,79.16
2023-05-06T23:27:56.904Z,79.28
2023-05-06T23:30:30.335Z,79.28
2023-05-06T23:33:01.166Z,79.41
2023-05-06T23:35:32.000Z,79.55
2023-05-06T23:38:02.828Z,79.49
2023-05-06T23:40:33.648Z,79.63
2023-05-06T23:43:04.456Z,79.57
2023-05-06T23:45:37.738Z,79.75
2023-05-06T23:48:09.578Z,79.70
2023-05-06T23:50:42.346Z,79.50
2023-05-06T23:53:13.185Z,79.88
2023-05-06T23:55:44.286Z,79.60
2023-05-06T23:58:15.215Z,79.78
